Portada
METAR-TAF:

METAR-TAF

Aeropuertos :

Aeropuerto de San Sebastián

San Sebastián, España

latitud: 43-21N, longitud: 001-48W, altitud: 5 m

Observación

El informe se hizo hace 35 minutos, a las 22:30 UTC
Viento 4 kt con dirección variable
Temperatura 21°C
Humedad 69%
Presión 1021 hPa
Visibilidad 10 km o más
sin nubes por debajo de 1500 m y sin presencia de cumulonimbus.

METAR: LESO 172230Z AUTO VRB04KT CAVOK 21/15 Q1021

Hora: 01:05 (23:05 UTC)

Pronóstico

El informe se hizo hace 2 horas y 26 minutos, a las 20:39 UTC
Pronóstico válido del 17 a las 20 UTC al 18 a las 18 UTC
Viento 8 kt del oeste
Visibilidad 10 km o más
sin nubes por debajo de 1500 m y sin presencia de cumulonimbus.
Probabilidad 30% :
Temporalmente
del 17 a las 20 UTC al 17 a las 23 UTC
Viento 15 kt del oeste-noroeste con ráfagas de 25 kt

TAF: LESO 172039Z 1720/1818 27008KT CAVOK TX32/1812Z TN17/1805Z PROB30 TEMPO 1720/1723 30015G25KT

Observaciones y pronósticos meteorológicos de más de 4000 aeropuertos (mensajes METAR y TAF).

Los puntos amarillos y rojos representan las estaciones disponibles.

Ponga el ratón en el punto deseado para ver el nombre de la estación.

Haga clic para ver las observaciones y los pronósticos meteorológicos.

Para cambiar el mapa : haga clic en los botones verdes con una cruz de color negro para hacer un zoom, en el botón verde con un guión para alejar o en las flechas verdes para mapas adyacentes.


METAR-TAF: